sensor_id;sensor_type;location;lat;lon;timestamp;P1;durP1;ratioP1;P2;durP2;ratioP2
11287;SDS011;5700;50.996;7.044;2023-03-29T00:01:48;4.10;;;2.10;;
11287;SDS011;5700;50.996;7.044;2023-03-29T00:04:52;6.88;;;2.15;;
11287;SDS011;5700;50.996;7.044;2023-03-29T00:07:53;4.45;;;2.25;;
11287;SDS011;5700;50.996;7.044;2023-03-29T00:11:00;5.65;;;2.28;;
11287;SDS011;5700;50.996;7.044;2023-03-29T00:14:02;2.85;;;1.63;;
11287;SDS011;5700;50.996;7.044;2023-03-29T00:17:03;4.72;;;2.30;;
11287;SDS011;5700;50.996;7.044;2023-03-29T00:20:07;5.00;;;2.30;;
11287;SDS011;5700;50.996;7.044;2023-03-29T00:23:09;5.55;;;2.30;;
11287;SDS011;5700;50.996;7.044;2023-03-29T00:26:10;4.78;;;2.50;;
11287;SDS011;5700;50.996;7.044;2023-03-29T00:29:11;2.95;;;1.90;;
11287;SDS011;5700;50.996;7.044;2023-03-29T00:32:13;3.85;;;1.92;;
11287;SDS011;5700;50.996;7.044;2023-03-29T00:35:16;3.63;;;2.00;;
11287;SDS011;5700;50.996;7.044;2023-03-29T00:38:18;5.15;;;2.35;;
11287;SDS011;5700;50.996;7.044;2023-03-29T00:41:20;3.53;;;1.90;;
11287;SDS011;5700;50.996;7.044;2023-03-29T00:47:53;3.85;;;1.90;;
11287;SDS011;5700;50.996;7.044;2023-03-29T00:50:58;4.10;;;1.90;;
11287;SDS011;5700;50.996;7.044;2023-03-29T00:54:02;5.43;;;2.05;;
11287;SDS011;5700;50.996;7.044;2023-03-29T00:57:05;3.38;;;1.90;;
11287;SDS011;5700;50.996;7.044;2023-03-29T01:00:08;3.88;;;2.00;;
11287;SDS011;5700;50.996;7.044;2023-03-29T01:03:13;4.57;;;2.22;;
11287;SDS011;5700;50.996;7.044;2023-03-29T01:06:25;5.32;;;2.03;;
11287;SDS011;5700;50.996;7.044;2023-03-29T01:09:28;4.20;;;2.05;;
11287;SDS011;5700;50.996;7.044;2023-03-29T01:12:32;5.82;;;2.42;;
11287;SDS011;5700;50.996;7.044;2023-03-29T01:15:36;5.07;;;2.03;;
11287;SDS011;5700;50.996;7.044;2023-03-29T01:18:39;3.03;;;1.80;;
11287;SDS011;5700;50.996;7.044;2023-03-29T01:21:43;3.08;;;2.05;;
11287;SDS011;5700;50.996;7.044;2023-03-29T01:24:51;5.07;;;1.92;;
11287;SDS011;5700;50.996;7.044;2023-03-29T01:28:01;4.97;;;2.10;;
11287;SDS011;5700;50.996;7.044;2023-03-29T01:31:06;3.60;;;1.77;;
11287;SDS011;5700;50.996;7.044;2023-03-29T01:34:09;4.28;;;2.20;;
11287;SDS011;5700;50.996;7.044;2023-03-29T01:37:13;6.28;;;2.20;;
11287;SDS011;5700;50.996;7.044;2023-03-29T01:40:18;3.42;;;2.10;;
11287;SDS011;5700;50.996;7.044;2023-03-29T01:43:22;5.22;;;2.10;;
11287;SDS011;5700;50.996;7.044;2023-03-29T01:46:26;4.53;;;2.20;;
11287;SDS011;5700;50.996;7.044;2023-03-29T01:49:32;3.63;;;1.77;;
11287;SDS011;5700;50.996;7.044;2023-03-29T01:52:37;4.22;;;2.25;;
11287;SDS011;5700;50.996;7.044;2023-03-29T01:55:41;5.15;;;2.28;;
11287;SDS011;5700;50.996;7.044;2023-03-29T01:58:47;5.00;;;2.17;;
11287;SDS011;5700;50.996;7.044;2023-03-29T02:01:51;2.95;;;1.75;;
11287;SDS011;5700;50.996;7.044;2023-03-29T02:04:55;6.63;;;2.05;;
11287;SDS011;5700;50.996;7.044;2023-03-29T02:07:58;3.45;;;2.00;;
11287;SDS011;5700;50.996;7.044;2023-03-29T02:11:00;3.00;;;1.85;;
11287;SDS011;5700;50.996;7.044;2023-03-29T02:14:03;6.57;;;2.25;;
11287;SDS011;5700;50.996;7.044;2023-03-29T02:17:11;3.13;;;1.90;;
11287;SDS011;5700;50.996;7.044;2023-03-29T02:20:18;4.15;;;2.25;;
11287;SDS011;5700;50.996;7.044;2023-03-29T02:23:23;4.50;;;2.42;;
11287;SDS011;5700;50.996;7.044;2023-03-29T02:26:27;4.25;;;2.13;;
11287;SDS011;5700;50.996;7.044;2023-03-29T02:29:30;4.65;;;2.20;;
11287;SDS011;5700;50.996;7.044;2023-03-29T02:32:32;5.38;;;2.45;;
11287;SDS011;5700;50.996;7.044;2023-03-29T02:35:36;5.70;;;2.55;;
11287;SDS011;5700;50.996;7.044;2023-03-29T02:38:41;4.28;;;2.00;;
11287;SDS011;5700;50.996;7.044;2023-03-29T02:41:43;4.35;;;2.22;;
11287;SDS011;5700;50.996;7.044;2023-03-29T02:44:48;6.55;;;2.15;;
11287;SDS011;5700;50.996;7.044;2023-03-29T02:47:52;5.53;;;2.08;;
11287;SDS011;5700;50.996;7.044;2023-03-29T02:50:55;4.43;;;2.13;;
11287;SDS011;5700;50.996;7.044;2023-03-29T02:54:00;6.55;;;2.38;;
11287;SDS011;5700;50.996;7.044;2023-03-29T02:57:03;4.38;;;2.13;;
11287;SDS011;5700;50.996;7.044;2023-03-29T03:00:08;4.30;;;2.00;;
11287;SDS011;5700;50.996;7.044;2023-03-29T03:03:11;5.07;;;2.47;;
11287;SDS011;5700;50.996;7.044;2023-03-29T03:06:14;5.13;;;2.00;;
11287;SDS011;5700;50.996;7.044;2023-03-29T03:09:15;4.60;;;2.08;;
11287;SDS011;5700;50.996;7.044;2023-03-29T03:12:18;6.47;;;2.17;;
11287;SDS011;5700;50.996;7.044;2023-03-29T03:15:21;3.15;;;1.60;;
11287;SDS011;5700;50.996;7.044;2023-03-29T03:18:22;3.28;;;1.95;;
11287;SDS011;5700;50.996;7.044;2023-03-29T03:21:23;5.35;;;1.83;;
11287;SDS011;5700;50.996;7.044;2023-03-29T03:24:27;4.70;;;2.08;;
11287;SDS011;5700;50.996;7.044;2023-03-29T03:27:28;7.65;;;2.05;;
11287;SDS011;5700;50.996;7.044;2023-03-29T03:30:31;3.75;;;1.90;;
11287;SDS011;5700;50.996;7.044;2023-03-29T03:33:33;4.20;;;2.13;;
11287;SDS011;5700;50.996;7.044;2023-03-29T03:36:35;2.97;;;1.77;;
11287;SDS011;5700;50.996;7.044;2023-03-29T03:39:36;5.55;;;1.92;;
11287;SDS011;5700;50.996;7.044;2023-03-29T03:42:38;2.85;;;1.65;;
11287;SDS011;5700;50.996;7.044;2023-03-29T03:45:41;3.60;;;1.75;;
11287;SDS011;5700;50.996;7.044;2023-03-29T03:48:43;5.55;;;2.38;;
11287;SDS011;5700;50.996;7.044;2023-03-29T03:51:45;3.38;;;1.73;;
11287;SDS011;5700;50.996;7.044;2023-03-29T03:54:46;5.00;;;1.88;;
11287;SDS011;5700;50.996;7.044;2023-03-29T03:57:49;3.95;;;1.63;;
11287;SDS011;5700;50.996;7.044;2023-03-29T04:00:52;6.00;;;2.00;;
11287;SDS011;5700;50.996;7.044;2023-03-29T04:03:54;3.67;;;1.75;;
11287;SDS011;5700;50.996;7.044;2023-03-29T04:06:55;3.10;;;1.65;;
11287;SDS011;5700;50.996;7.044;2023-03-29T04:10:01;5.18;;;1.88;;
11287;SDS011;5700;50.996;7.044;2023-03-29T04:13:03;3.00;;;1.58;;
11287;SDS011;5700;50.996;7.044;2023-03-29T04:16:06;3.65;;;1.65;;
11287;SDS011;5700;50.996;7.044;2023-03-29T04:19:08;5.28;;;1.50;;
11287;SDS011;5700;50.996;7.044;2023-03-29T04:22:09;4.13;;;1.75;;
11287;SDS011;5700;50.996;7.044;2023-03-29T04:25:11;4.65;;;1.75;;
11287;SDS011;5700;50.996;7.044;2023-03-29T04:28:12;2.63;;;1.75;;
11287;SDS011;5700;50.996;7.044;2023-03-29T04:31:15;5.63;;;2.05;;
11287;SDS011;5700;50.996;7.044;2023-03-29T04:34:16;2.80;;;1.45;;
11287;SDS011;5700;50.996;7.044;2023-03-29T04:37:18;3.38;;;1.70;;
11287;SDS011;5700;50.996;7.044;2023-03-29T04:40:21;2.42;;;1.60;;
11287;SDS011;5700;50.996;7.044;2023-03-29T04:43:22;3.47;;;1.40;;
11287;SDS011;5700;50.996;7.044;2023-03-29T04:46:25;5.38;;;1.58;;
11287;SDS011;5700;50.996;7.044;2023-03-29T04:49:26;4.25;;;1.75;;
11287;SDS011;5700;50.996;7.044;2023-03-29T04:52:28;1.98;;;1.30;;
11287;SDS011;5700;50.996;7.044;2023-03-29T04:55:32;3.33;;;1.70;;
11287;SDS011;5700;50.996;7.044;2023-03-29T04:58:33;1.45;;;1.30;;
11287;SDS011;5700;50.996;7.044;2023-03-29T05:01:36;2.42;;;1.40;;
11287;SDS011;5700;50.996;7.044;2023-03-29T05:04:37;3.13;;;1.65;;
11287;SDS011;5700;50.996;7.044;2023-03-29T05:07:39;3.50;;;1.60;;
11287;SDS011;5700;50.996;7.044;2023-03-29T05:10:40;2.50;;;1.38;;
11287;SDS011;5700;50.996;7.044;2023-03-29T05:13:42;5.18;;;1.80;;
11287;SDS011;5700;50.996;7.044;2023-03-29T05:16:45;5.65;;;2.25;;
11287;SDS011;5700;50.996;7.044;2023-03-29T05:19:46;3.50;;;1.73;;
11287;SDS011;5700;50.996;7.044;2023-03-29T05:22:48;2.88;;;1.70;;
11287;SDS011;5700;50.996;7.044;2023-03-29T05:25:49;3.20;;;1.48;;
11287;SDS011;5700;50.996;7.044;2023-03-29T05:28:52;3.63;;;1.75;;
11287;SDS011;5700;50.996;7.044;2023-03-29T05:31:55;2.25;;;1.63;;
11287;SDS011;5700;50.996;7.044;2023-03-29T05:34:57;4.63;;;1.60;;
11287;SDS011;5700;50.996;7.044;2023-03-29T05:37:58;3.30;;;1.70;;
11287;SDS011;5700;50.996;7.044;2023-03-29T05:41:00;3.28;;;2.00;;
11287;SDS011;5700;50.996;7.044;2023-03-29T05:44:02;4.90;;;2.00;;
11287;SDS011;5700;50.996;7.044;2023-03-29T05:47:05;3.40;;;1.75;;
11287;SDS011;5700;50.996;7.044;2023-03-29T05:50:07;3.72;;;1.88;;
11287;SDS011;5700;50.996;7.044;2023-03-29T05:53:10;4.38;;;1.90;;
11287;SDS011;5700;50.996;7.044;2023-03-29T05:56:11;4.18;;;1.90;;
11287;SDS011;5700;50.996;7.044;2023-03-29T05:59:15;5.70;;;2.30;;
11287;SDS011;5700;50.996;7.044;2023-03-29T06:02:18;5.40;;;1.90;;
11287;SDS011;5700;50.996;7.044;2023-03-29T06:05:20;3.78;;;1.77;;
11287;SDS011;5700;50.996;7.044;2023-03-29T06:08:21;3.35;;;2.00;;
11287;SDS011;5700;50.996;7.044;2023-03-29T06:11:23;4.05;;;1.90;;
11287;SDS011;5700;50.996;7.044;2023-03-29T06:14:25;3.95;;;2.03;;
11287;SDS011;5700;50.996;7.044;2023-03-29T06:17:28;2.60;;;1.67;;
11287;SDS011;5700;50.996;7.044;2023-03-29T06:20:29;3.92;;;1.92;;
11287;SDS011;5700;50.996;7.044;2023-03-29T06:23:30;3.10;;;1.50;;
11287;SDS011;5700;50.996;7.044;2023-03-29T06:26:32;2.30;;;1.40;;
11287;SDS011;5700;50.996;7.044;2023-03-29T06:29:34;2.97;;;1.40;;
11287;SDS011;5700;50.996;7.044;2023-03-29T06:32:36;3.85;;;1.70;;
11287;SDS011;5700;50.996;7.044;2023-03-29T06:35:39;3.03;;;1.80;;
11287;SDS011;5700;50.996;7.044;2023-03-29T06:38:41;4.07;;;1.73;;
11287;SDS011;5700;50.996;7.044;2023-03-29T06:41:44;3.78;;;1.60;;
11287;SDS011;5700;50.996;7.044;2023-03-29T06:44:46;2.35;;;1.45;;
11287;SDS011;5700;50.996;7.044;2023-03-29T06:47:48;1.70;;;1.10;;
11287;SDS011;5700;50.996;7.044;2023-03-29T06:50:50;4.70;;;1.65;;
11287;SDS011;5700;50.996;7.044;2023-03-29T06:53:53;3.83;;;1.70;;
11287;SDS011;5700;50.996;7.044;2023-03-29T06:56:54;2.67;;;1.42;;
11287;SDS011;5700;50.996;7.044;2023-03-29T06:59:56;4.47;;;1.60;;
11287;SDS011;5700;50.996;7.044;2023-03-29T07:03:02;5.00;;;1.85;;
11287;SDS011;5700;50.996;7.044;2023-03-29T07:06:05;5.80;;;1.40;;
11287;SDS011;5700;50.996;7.044;2023-03-29T07:09:10;3.05;;;1.70;;
11287;SDS011;5700;50.996;7.044;2023-03-29T07:12:12;2.00;;;1.30;;
11287;SDS011;5700;50.996;7.044;2023-03-29T07:15:13;5.78;;;1.60;;
11287;SDS011;5700;50.996;7.044;2023-03-29T07:18:16;2.25;;;1.40;;
11287;SDS011;5700;50.996;7.044;2023-03-29T07:21:18;3.97;;;1.75;;
11287;SDS011;5700;50.996;7.044;2023-03-29T07:24:20;5.57;;;1.67;;
11287;SDS011;5700;50.996;7.044;2023-03-29T07:27:22;2.47;;;1.63;;
11287;SDS011;5700;50.996;7.044;2023-03-29T07:30:24;3.95;;;1.40;;
11287;SDS011;5700;50.996;7.044;2023-03-29T07:33:29;5.75;;;2.20;;
11287;SDS011;5700;50.996;7.044;2023-03-29T07:36:31;4.43;;;1.27;;
11287;SDS011;5700;50.996;7.044;2023-03-29T07:39:33;3.33;;;1.45;;
11287;SDS011;5700;50.996;7.044;2023-03-29T07:42:36;2.05;;;1.40;;
11287;SDS011;5700;50.996;7.044;2023-03-29T07:45:37;3.55;;;1.48;;
11287;SDS011;5700;50.996;7.044;2023-03-29T07:48:42;3.17;;;1.33;;
11287;SDS011;5700;50.996;7.044;2023-03-29T07:51:43;3.47;;;1.65;;
11287;SDS011;5700;50.996;7.044;2023-03-29T07:54:45;4.38;;;1.52;;
11287;SDS011;5700;50.996;7.044;2023-03-29T07:57:47;2.97;;;1.35;;
11287;SDS011;5700;50.996;7.044;2023-03-29T08:00:49;5.00;;;1.77;;
11287;SDS011;5700;50.996;7.044;2023-03-29T08:03:51;2.17;;;1.13;;
11287;SDS011;5700;50.996;7.044;2023-03-29T08:06:53;3.00;;;1.67;;
11287;SDS011;5700;50.996;7.044;2023-03-29T08:09:54;7.07;;;1.67;;
11287;SDS011;5700;50.996;7.044;2023-03-29T08:12:56;4.80;;;1.27;;
11287;SDS011;5700;50.996;7.044;2023-03-29T08:15:58;4.82;;;1.23;;
11287;SDS011;5700;50.996;7.044;2023-03-29T08:19:00;2.45;;;1.20;;
11287;SDS011;5700;50.996;7.044;2023-03-29T08:22:02;1.88;;;1.10;;
11287;SDS011;5700;50.996;7.044;2023-03-29T08:25:04;1.77;;;0.88;;
11287;SDS011;5700;50.996;7.044;2023-03-29T08:28:06;1.58;;;1.20;;
11287;SDS011;5700;50.996;7.044;2023-03-29T08:31:08;1.42;;;1.00;;
11287;SDS011;5700;50.996;7.044;2023-03-29T08:34:11;1.70;;;0.80;;
11287;SDS011;5700;50.996;7.044;2023-03-29T08:37:13;2.08;;;1.27;;
11287;SDS011;5700;50.996;7.044;2023-03-29T08:40:15;2.17;;;1.05;;
11287;SDS011;5700;50.996;7.044;2023-03-29T08:43:23;2.10;;;1.15;;
11287;SDS011;5700;50.996;7.044;2023-03-29T08:46:33;1.80;;;1.08;;
11287;SDS011;5700;50.996;7.044;2023-03-29T08:49:40;1.35;;;1.05;;
11287;SDS011;5700;50.996;7.044;2023-03-29T08:52:43;2.15;;;1.20;;
11287;SDS011;5700;50.996;7.044;2023-03-29T08:55:47;3.05;;;1.20;;
11287;SDS011;5700;50.996;7.044;2023-03-29T08:58:49;2.97;;;1.55;;
11287;SDS011;5700;50.996;7.044;2023-03-29T09:01:52;3.08;;;1.08;;
11287;SDS011;5700;50.996;7.044;2023-03-29T09:04:59;7.65;;;1.15;;
11287;SDS011;5700;50.996;7.044;2023-03-29T09:08:07;2.88;;;0.98;;
11287;SDS011;5700;50.996;7.044;2023-03-29T09:11:16;2.53;;;0.90;;
11287;SDS011;5700;50.996;7.044;2023-03-29T09:14:30;3.60;;;1.48;;
11287;SDS011;5700;50.996;7.044;2023-03-29T09:17:42;4.10;;;1.10;;
11287;SDS011;5700;50.996;7.044;2023-03-29T09:20:51;5.72;;;1.45;;
11287;SDS011;5700;50.996;7.044;2023-03-29T09:24:00;3.28;;;1.13;;
11287;SDS011;5700;50.996;7.044;2023-03-29T09:27:08;2.60;;;1.17;;
11287;SDS011;5700;50.996;7.044;2023-03-29T09:30:12;2.00;;;1.00;;
11287;SDS011;5700;50.996;7.044;2023-03-29T09:33:20;2.28;;;1.20;;
11287;SDS011;5700;50.996;7.044;2023-03-29T09:36:28;5.32;;;1.15;;
11287;SDS011;5700;50.996;7.044;2023-03-29T09:39:35;4.22;;;1.20;;
11287;SDS011;5700;50.996;7.044;2023-03-29T09:42:37;2.63;;;0.98;;
11287;SDS011;5700;50.996;7.044;2023-03-29T09:45:39;2.47;;;1.02;;
11287;SDS011;5700;50.996;7.044;2023-03-29T09:48:42;2.47;;;1.02;;
11287;SDS011;5700;50.996;7.044;2023-03-29T09:51:47;4.63;;;1.17;;
11287;SDS011;5700;50.996;7.044;2023-03-29T09:54:49;2.10;;;1.08;;
11287;SDS011;5700;50.996;7.044;2023-03-29T09:57:50;2.50;;;1.15;;
11287;SDS011;5700;50.996;7.044;2023-03-29T10:00:52;1.08;;;0.70;;
11287;SDS011;5700;50.996;7.044;2023-03-29T10:03:54;5.60;;;1.42;;
11287;SDS011;5700;50.996;7.044;2023-03-29T10:06:58;2.08;;;0.90;;
11287;SDS011;5700;50.996;7.044;2023-03-29T10:10:00;2.70;;;1.08;;
11287;SDS011;5700;50.996;7.044;2023-03-29T10:13:02;4.22;;;1.10;;
11287;SDS011;5700;50.996;7.044;2023-03-29T10:16:06;1.20;;;1.10;;
11287;SDS011;5700;50.996;7.044;2023-03-29T10:19:17;2.05;;;1.35;;
11287;SDS011;5700;50.996;7.044;2023-03-29T10:22:22;2.15;;;1.50;;
11287;SDS011;5700;50.996;7.044;2023-03-29T10:25:26;2.33;;;1.33;;
11287;SDS011;5700;50.996;7.044;2023-03-29T10:28:29;4.63;;;1.60;;
11287;SDS011;5700;50.996;7.044;2023-03-29T10:31:30;3.72;;;1.40;;
11287;SDS011;5700;50.996;7.044;2023-03-29T10:34:32;4.25;;;1.30;;
11287;SDS011;5700;50.996;7.044;2023-03-29T10:37:35;3.33;;;1.42;;
11287;SDS011;5700;50.996;7.044;2023-03-29T10:40:40;3.45;;;1.23;;
11287;SDS011;5700;50.996;7.044;2023-03-29T10:43:44;2.63;;;1.33;;
11287;SDS011;5700;50.996;7.044;2023-03-29T10:46:48;3.42;;;1.80;;
11287;SDS011;5700;50.996;7.044;2023-03-29T10:49:50;5.07;;;1.63;;
11287;SDS011;5700;50.996;7.044;2023-03-29T10:52:55;10.93;;;2.25;;
11287;SDS011;5700;50.996;7.044;2023-03-29T10:55:59;3.33;;;1.48;;
11287;SDS011;5700;50.996;7.044;2023-03-29T10:59:15;2.15;;;1.08;;
11287;SDS011;5700;50.996;7.044;2023-03-29T11:02:24;5.13;;;1.65;;
11287;SDS011;5700;50.996;7.044;2023-03-29T11:05:38;3.15;;;1.30;;
11287;SDS011;5700;50.996;7.044;2023-03-29T11:08:50;3.83;;;1.48;;
11287;SDS011;5700;50.996;7.044;2023-03-29T11:11:57;2.63;;;0.95;;
11287;SDS011;5700;50.996;7.044;2023-03-29T11:15:11;3.67;;;1.23;;
11287;SDS011;5700;50.996;7.044;2023-03-29T11:18:27;1.95;;;1.50;;
11287;SDS011;5700;50.996;7.044;2023-03-29T11:21:38;4.97;;;1.30;;
11287;SDS011;5700;50.996;7.044;2023-03-29T11:24:47;2.45;;;1.25;;
11287;SDS011;5700;50.996;7.044;2023-03-29T11:27:58;2.20;;;1.13;;
11287;SDS011;5700;50.996;7.044;2023-03-29T11:31:03;2.83;;;1.50;;
11287;SDS011;5700;50.996;7.044;2023-03-29T11:34:13;3.83;;;1.50;;
11287;SDS011;5700;50.996;7.044;2023-03-29T11:37:21;1.88;;;1.00;;
11287;SDS011;5700;50.996;7.044;2023-03-29T11:40:30;3.33;;;1.50;;
11287;SDS011;5700;50.996;7.044;2023-03-29T11:43:39;3.50;;;1.23;;
11287;SDS011;5700;50.996;7.044;2023-03-29T11:46:43;3.17;;;1.27;;
11287;SDS011;5700;50.996;7.044;2023-03-29T11:49:47;5.18;;;1.65;;
11287;SDS011;5700;50.996;7.044;2023-03-29T11:52:54;2.63;;;1.40;;
11287;SDS011;5700;50.996;7.044;2023-03-29T11:55:59;1.58;;;0.90;;
11287;SDS011;5700;50.996;7.044;2023-03-29T11:59:04;4.68;;;1.17;;
11287;SDS011;5700;50.996;7.044;2023-03-29T12:02:09;5.03;;;1.48;;
11287;SDS011;5700;50.996;7.044;2023-03-29T12:05:14;2.85;;;1.20;;
11287;SDS011;5700;50.996;7.044;2023-03-29T12:08:21;3.40;;;1.30;;
11287;SDS011;5700;50.996;7.044;2023-03-29T12:11:29;4.40;;;1.30;;
11287;SDS011;5700;50.996;7.044;2023-03-29T12:14:37;2.00;;;0.90;;
11287;SDS011;5700;50.996;7.044;2023-03-29T12:17:43;2.80;;;1.17;;
11287;SDS011;5700;50.996;7.044;2023-03-29T12:20:50;3.45;;;1.55;;
11287;SDS011;5700;50.996;7.044;2023-03-29T12:23:56;5.50;;;1.02;;
11287;SDS011;5700;50.996;7.044;2023-03-29T12:27:03;3.35;;;1.45;;
11287;SDS011;5700;50.996;7.044;2023-03-29T12:30:23;3.35;;;1.35;;
11287;SDS011;5700;50.996;7.044;2023-03-29T12:33:33;3.85;;;1.20;;
11287;SDS011;5700;50.996;7.044;2023-03-29T12:36:44;2.08;;;0.77;;
11287;SDS011;5700;50.996;7.044;2023-03-29T12:39:59;2.40;;;1.27;;
11287;SDS011;5700;50.996;7.044;2023-03-29T12:43:05;3.72;;;1.50;;
11287;SDS011;5700;50.996;7.044;2023-03-29T12:46:09;2.83;;;1.27;;
11287;SDS011;5700;50.996;7.044;2023-03-29T12:49:13;4.32;;;1.08;;
11287;SDS011;5700;50.996;7.044;2023-03-29T12:52:21;2.88;;;1.30;;
11287;SDS011;5700;50.996;7.044;2023-03-29T12:55:28;3.97;;;1.33;;
11287;SDS011;5700;50.996;7.044;2023-03-29T13:01:59;2.42;;;1.05;;
11287;SDS011;5700;50.996;7.044;2023-03-29T13:05:03;3.15;;;1.40;;
11287;SDS011;5700;50.996;7.044;2023-03-29T13:08:26;2.17;;;1.00;;
11287;SDS011;5700;50.996;7.044;2023-03-29T13:11:33;1.58;;;0.70;;
11287;SDS011;5700;50.996;7.044;2023-03-29T13:14:38;2.25;;;1.00;;
11287;SDS011;5700;50.996;7.044;2023-03-29T13:17:42;2.60;;;1.17;;
11287;SDS011;5700;50.996;7.044;2023-03-29T13:20:51;2.20;;;0.88;;
11287;SDS011;5700;50.996;7.044;2023-03-29T13:23:57;0.90;;;0.60;;
11287;SDS011;5700;50.996;7.044;2023-03-29T13:27:02;1.63;;;0.90;;
11287;SDS011;5700;50.996;7.044;2023-03-29T13:30:12;1.65;;;0.90;;
11287;SDS011;5700;50.996;7.044;2023-03-29T13:33:28;1.65;;;0.90;;
11287;SDS011;5700;50.996;7.044;2023-03-29T13:36:41;4.15;;;1.33;;
11287;SDS011;5700;50.996;7.044;2023-03-29T13:39:50;2.50;;;0.90;;
11287;SDS011;5700;50.996;7.044;2023-03-29T13:42:55;1.73;;;0.77;;
11287;SDS011;5700;50.996;7.044;2023-03-29T13:49:26;1.63;;;0.70;;
11287;SDS011;5700;50.996;7.044;2023-03-29T13:52:29;1.00;;;0.63;;
11287;SDS011;5700;50.996;7.044;2023-03-29T13:55:35;1.98;;;0.70;;
11287;SDS011;5700;50.996;7.044;2023-03-29T13:58:41;1.27;;;0.70;;
11287;SDS011;5700;50.996;7.044;2023-03-29T14:01:47;1.73;;;0.70;;
11287;SDS011;5700;50.996;7.044;2023-03-29T14:04:55;1.23;;;0.68;;
11287;SDS011;5700;50.996;7.044;2023-03-29T14:08:01;2.25;;;0.82;;
11287;SDS011;5700;50.996;7.044;2023-03-29T14:11:06;1.63;;;0.80;;
11287;SDS011;5700;50.996;7.044;2023-03-29T14:14:08;2.47;;;0.88;;
11287;SDS011;5700;50.996;7.044;2023-03-29T14:17:12;1.52;;;0.75;;
11287;SDS011;5700;50.996;7.044;2023-03-29T14:20:18;2.05;;;0.80;;
11287;SDS011;5700;50.996;7.044;2023-03-29T14:23:20;2.47;;;0.75;;
11287;SDS011;5700;50.996;7.044;2023-03-29T14:26:23;2.35;;;1.05;;
11287;SDS011;5700;50.996;7.044;2023-03-29T14:29:29;2.28;;;0.70;;
11287;SDS011;5700;50.996;7.044;2023-03-29T14:32:31;0.98;;;0.55;;
11287;SDS011;5700;50.996;7.044;2023-03-29T14:35:34;0.88;;;0.60;;
11287;SDS011;5700;50.996;7.044;2023-03-29T14:38:35;1.02;;;0.88;;
11287;SDS011;5700;50.996;7.044;2023-03-29T14:41:37;0.90;;;0.60;;
11287;SDS011;5700;50.996;7.044;2023-03-29T14:44:39;3.78;;;1.02;;
11287;SDS011;5700;50.996;7.044;2023-03-29T14:47:41;0.70;;;0.60;;
11287;SDS011;5700;50.996;7.044;2023-03-29T14:50:44;0.85;;;0.70;;
11287;SDS011;5700;50.996;7.044;2023-03-29T14:53:47;2.83;;;1.30;;
11287;SDS011;5700;50.996;7.044;2023-03-29T14:56:48;2.70;;;0.82;;
11287;SDS011;5700;50.996;7.044;2023-03-29T14:59:51;2.88;;;0.90;;
11287;SDS011;5700;50.996;7.044;2023-03-29T15:02:55;1.75;;;0.90;;
11287;SDS011;5700;50.996;7.044;2023-03-29T15:05:59;2.40;;;0.90;;
11287;SDS011;5700;50.996;7.044;2023-03-29T15:09:02;1.25;;;0.80;;
11287;SDS011;5700;50.996;7.044;2023-03-29T15:12:05;1.73;;;0.80;;
11287;SDS011;5700;50.996;7.044;2023-03-29T15:15:08;0.80;;;0.55;;
11287;SDS011;5700;50.996;7.044;2023-03-29T15:18:12;2.63;;;0.85;;
11287;SDS011;5700;50.996;7.044;2023-03-29T15:21:18;5.38;;;1.13;;
11287;SDS011;5700;50.996;7.044;2023-03-29T15:24:22;2.03;;;0.95;;
11287;SDS011;5700;50.996;7.044;2023-03-29T15:27:37;1.20;;;0.68;;
11287;SDS011;5700;50.996;7.044;2023-03-29T15:30:42;2.00;;;0.80;;
11287;SDS011;5700;50.996;7.044;2023-03-29T15:33:44;1.30;;;0.70;;
11287;SDS011;5700;50.996;7.044;2023-03-29T15:36:47;2.17;;;0.77;;
11287;SDS011;5700;50.996;7.044;2023-03-29T15:39:48;2.35;;;1.00;;
11287;SDS011;5700;50.996;7.044;2023-03-29T15:42:50;1.83;;;0.85;;
11287;SDS011;5700;50.996;7.044;2023-03-29T15:45:51;4.43;;;1.48;;
11287;SDS011;5700;50.996;7.044;2023-03-29T15:48:53;1.60;;;0.80;;
11287;SDS011;5700;50.996;7.044;2023-03-29T15:51:56;3.20;;;0.80;;
11287;SDS011;5700;50.996;7.044;2023-03-29T15:54:57;2.22;;;0.70;;
11287;SDS011;5700;50.996;7.044;2023-03-29T15:57:58;1.55;;;1.00;;
11287;SDS011;5700;50.996;7.044;2023-03-29T16:01:01;1.40;;;0.80;;
11287;SDS011;5700;50.996;7.044;2023-03-29T16:04:12;2.00;;;1.00;;
11287;SDS011;5700;50.996;7.044;2023-03-29T16:07:17;1.77;;;1.08;;
11287;SDS011;5700;50.996;7.044;2023-03-29T16:10:18;0.90;;;0.60;;
11287;SDS011;5700;50.996;7.044;2023-03-29T16:13:20;2.03;;;1.00;;
11287;SDS011;5700;50.996;7.044;2023-03-29T16:16:22;1.90;;;0.82;;
11287;SDS011;5700;50.996;7.044;2023-03-29T16:19:23;2.33;;;0.90;;
11287;SDS011;5700;50.996;7.044;2023-03-29T16:22:27;1.67;;;0.98;;
11287;SDS011;5700;50.996;7.044;2023-03-29T16:25:29;2.85;;;1.13;;
11287;SDS011;5700;50.996;7.044;2023-03-29T16:28:30;2.33;;;1.10;;
11287;SDS011;5700;50.996;7.044;2023-03-29T16:31:32;4.45;;;1.15;;
11287;SDS011;5700;50.996;7.044;2023-03-29T16:34:33;3.53;;;1.20;;
11287;SDS011;5700;50.996;7.044;2023-03-29T16:37:38;3.67;;;1.10;;
11287;SDS011;5700;50.996;7.044;2023-03-29T16:40:39;2.10;;;1.02;;
11287;SDS011;5700;50.996;7.044;2023-03-29T16:43:41;4.03;;;1.13;;
11287;SDS011;5700;50.996;7.044;2023-03-29T16:46:43;2.00;;;0.90;;
11287;SDS011;5700;50.996;7.044;2023-03-29T16:49:44;3.03;;;1.20;;
11287;SDS011;5700;50.996;7.044;2023-03-29T16:52:48;2.17;;;1.15;;
11287;SDS011;5700;50.996;7.044;2023-03-29T16:55:51;2.38;;;1.10;;
11287;SDS011;5700;50.996;7.044;2023-03-29T16:58:52;1.85;;;0.98;;
11287;SDS011;5700;50.996;7.044;2023-03-29T17:01:54;2.90;;;1.08;;
11287;SDS011;5700;50.996;7.044;2023-03-29T17:04:55;2.33;;;1.27;;
11287;SDS011;5700;50.996;7.044;2023-03-29T17:07:58;3.22;;;1.52;;
11287;SDS011;5700;50.996;7.044;2023-03-29T17:10:59;2.13;;;1.00;;
11287;SDS011;5700;50.996;7.044;2023-03-29T17:14:02;2.78;;;1.00;;
11287;SDS011;5700;50.996;7.044;2023-03-29T17:17:03;2.50;;;1.45;;
11287;SDS011;5700;50.996;7.044;2023-03-29T17:20:05;2.80;;;1.00;;
11287;SDS011;5700;50.996;7.044;2023-03-29T17:23:12;3.08;;;1.30;;
11287;SDS011;5700;50.996;7.044;2023-03-29T17:26:13;2.33;;;1.00;;
11287;SDS011;5700;50.996;7.044;2023-03-29T17:29:15;1.85;;;1.02;;
11287;SDS011;5700;50.996;7.044;2023-03-29T17:32:16;1.00;;;0.88;;
11287;SDS011;5700;50.996;7.044;2023-03-29T17:35:18;3.22;;;1.48;;
11287;SDS011;5700;50.996;7.044;2023-03-29T17:38:21;2.10;;;1.20;;
11287;SDS011;5700;50.996;7.044;2023-03-29T17:41:22;1.77;;;0.70;;
11287;SDS011;5700;50.996;7.044;2023-03-29T17:44:24;2.05;;;0.60;;
11287;SDS011;5700;50.996;7.044;2023-03-29T17:47:25;1.45;;;0.77;;
11287;SDS011;5700;50.996;7.044;2023-03-29T17:50:27;4.95;;;1.25;;
11287;SDS011;5700;50.996;7.044;2023-03-29T17:53:30;2.65;;;0.88;;
11287;SDS011;5700;50.996;7.044;2023-03-29T17:56:31;1.42;;;0.80;;
11287;SDS011;5700;50.996;7.044;2023-03-29T17:59:32;2.13;;;0.93;;
11287;SDS011;5700;50.996;7.044;2023-03-29T18:02:35;1.35;;;0.77;;
11287;SDS011;5700;50.996;7.044;2023-03-29T18:05:37;1.38;;;0.80;;
11287;SDS011;5700;50.996;7.044;2023-03-29T18:08:40;1.60;;;0.98;;
11287;SDS011;5700;50.996;7.044;2023-03-29T18:11:42;1.52;;;0.90;;
11287;SDS011;5700;50.996;7.044;2023-03-29T18:14:44;1.60;;;0.90;;
11287;SDS011;5700;50.996;7.044;2023-03-29T18:17:46;12.63;;;1.20;;
11287;SDS011;5700;50.996;7.044;2023-03-29T18:20:47;2.10;;;0.98;;
11287;SDS011;5700;50.996;7.044;2023-03-29T18:23:50;2.90;;;1.00;;
11287;SDS011;5700;50.996;7.044;2023-03-29T18:26:52;1.70;;;1.05;;
11287;SDS011;5700;50.996;7.044;2023-03-29T18:29:53;2.05;;;1.13;;
11287;SDS011;5700;50.996;7.044;2023-03-29T18:32:55;1.70;;;1.05;;
11287;SDS011;5700;50.996;7.044;2023-03-29T18:35:56;3.53;;;1.20;;
11287;SDS011;5700;50.996;7.044;2023-03-29T18:38:59;2.45;;;1.20;;
11287;SDS011;5700;50.996;7.044;2023-03-29T18:42:04;3.90;;;1.42;;
11287;SDS011;5700;50.996;7.044;2023-03-29T18:45:06;6.20;;;1.35;;
11287;SDS011;5700;50.996;7.044;2023-03-29T18:48:08;2.45;;;1.23;;
11287;SDS011;5700;50.996;7.044;2023-03-29T18:51:10;3.65;;;2.25;;
11287;SDS011;5700;50.996;7.044;2023-03-29T18:54:13;4.68;;;2.05;;